This is the latest recevied weather packets stored in our database for station/object EA4BCR. If no packets are shown the sender has not sent any weather packets the latest 10 day(s).
| Time | Temp. | Humidity | Pressure | Rain* | Wind** | Luminosity | Snow |
|---|---|---|---|---|---|---|---|
| 1787386209 | 24.44° C | 74% | 1013.5 hPa | - | - | - | - |
| 1787385609 | 25° C | 70% | 1013.3 hPa | - | - | - | - |
| 1787385009 | 24.44° C | 72% | 1013.5 hPa | - | - | - | - |
| 1787384409 | 23.33° C | 74% | 1013.8 hPa | - | - | - | - |
| 1787383809 | 23.33° C | 81% | 1013.8 hPa | - | - | - | - |
| 1787383209 | 22.22° C | 82% | 1014.1 hPa | - | - | - | - |
| 1787382609 | 22.22° C | 83% | 1014.2 hPa | - | - | - | - |
| 1787382009 | 21.67° C | 90% | 1014.3 hPa | - | - | - | - |
| 1787381409 | 22.22° C | 88% | 1014.1 hPa | - | - | - | - |
| 1787380809 | 22.22° C | 96% | 1014.1 hPa | - | - | - | - |
| 1787380209 | 22.22° C | 91% | 1013.9 hPa | - | - | - | - |
| 1787379609 | 22.22° C | 92% | 1013.8 hPa | - | - | - | - |
| 1787379009 | 21.67° C | 92% | 1013.9 hPa | - | - | - | - |
| 1787378409 | 21.67° C | 97% | 1013.9 hPa | - | - | - | - |
| 1787377809 | 21.67° C | 96% | 1013.8 hPa | - | - | - | - |
| 1787377209 | 21.67° C | 96% | 1013.8 hPa | - | - | - | - |
| 1787376609 | 21.11° C | 98% | 1013.7 hPa | - | - | - | - |
| 1787376009 | 21.11° C | 98% | 1013.7 hPa | - | - | - | - |
| 1787375409 | 21.67° C | 96% | 1013.5 hPa | - | - | - | - |
| 1787374809 | 21.67° C | 97% | 1013.6 hPa | - | - | - | - |
| 1787374209 | 21.67° C | 94% | 1013.4 hPa | - | - | - | - |
| 1787373609 | 21.67° C | 92% | 1013.2 hPa | - | - | - | - |
| 1787373009 | 21.67° C | 95% | 1013.3 hPa | - | - | - | - |
| 1787372409 | 22.22° C | 91% | 1013.1 hPa | - | - | - | - |
| 1787371809 | 22.22° C | 91% | 1013.1 hPa | - | - | - | - |
* Rain since midnight (hover to see other rain measurements)
** Current wind speed in m/s (hover to see current wind gust speed)